createdAt,value
2018-10-21T00:02:27.351Z,61.18
2018-10-21T00:04:57.191Z,59.69
2018-10-21T00:07:26.361Z,59.83
2018-10-21T00:09:56.935Z,60.15
2018-10-21T00:12:26.754Z,60.83
2018-10-21T00:14:58.139Z,61.35
2018-10-21T00:17:26.605Z,61.11
2018-10-21T00:19:56.844Z,61.36
2018-10-21T00:22:26.519Z,61.63
2018-10-21T00:24:56.337Z,60.87
2018-10-21T00:27:24.895Z,61.26
2018-10-21T00:29:55.560Z,61.18
2018-10-21T00:33:00.041Z,60.63
2018-10-21T00:35:30.049Z,61.42
2018-10-21T00:38:01.121Z,61.40
2018-10-21T00:40:30.444Z,61.80
2018-10-21T00:42:59.258Z,60.95
2018-10-21T00:45:32.335Z,60.45
2018-10-21T00:48:01.895Z,59.84
2018-10-21T00:50:30.747Z,60.13
2018-10-21T00:53:00.085Z,59.71
2018-10-21T00:55:29.249Z,58.10
2018-10-21T00:57:58.727Z,59.17
2018-10-21T01:00:43.220Z,58.01
2018-10-21T01:03:12.348Z,58.04
2018-10-21T01:05:42.104Z,57.83
2018-10-21T01:08:15.331Z,58.18
2018-10-21T01:10:44.726Z,58.40
2018-10-21T01:13:13.931Z,58.47
2018-10-21T01:15:44.276Z,59.12
2018-10-21T01:18:13.392Z,60.02
2018-10-21T01:20:43.337Z,61.92
2018-10-21T01:23:15.835Z,61.28
2018-10-21T01:25:44.567Z,61.28
2018-10-21T01:28:14.603Z,61.23
2018-10-21T01:30:44.653Z,61.82
2018-10-21T01:33:16.212Z,62.33
2018-10-21T01:35:45.503Z,62.25
2018-10-21T01:38:16.125Z,62.79
2018-10-21T01:40:50.315Z,63.67
2018-10-21T01:43:20.504Z,62.66
2018-10-21T01:45:49.019Z,62.32
2018-10-21T01:48:19.143Z,63.07
2018-10-21T01:50:49.199Z,62.72
2018-10-21T01:53:19.184Z,61.78
2018-10-21T01:55:48.037Z,62.48
2018-10-21T01:58:16.888Z,63.18
2018-10-21T02:00:45.968Z,63.66
2018-10-21T02:03:15.242Z,64.64
2018-10-21T02:05:44.550Z,65.30
2018-10-21T02:08:13.961Z,65.61
2018-10-21T02:10:44.619Z,66.96
2018-10-21T02:13:13.993Z,66.37
2018-10-21T02:15:42.535Z,65.80
2018-10-21T02:18:11.204Z,64.95
2018-10-21T02:20:44.887Z,64.08
2018-10-21T02:23:14.884Z,65.22
2018-10-21T02:25:45.014Z,64.41
2018-10-21T02:28:14.399Z,63.00
2018-10-21T02:30:43.504Z,62.46
2018-10-21T02:33:13.805Z,61.80
2018-10-21T02:35:44.058Z,62.29
2018-10-21T02:38:15.660Z,61.08
2018-10-21T02:41:21.053Z,62.06
2018-10-21T02:43:49.696Z,62.16
2018-10-21T02:46:18.448Z,62.11
2018-10-21T02:48:48.100Z,62.36
2018-10-21T02:51:17.100Z,62.69
2018-10-21T02:53:46.617Z,63.25
2018-10-21T02:56:15.148Z,62.57
2018-10-21T02:58:46.159Z,63.65
2018-10-21T03:01:15.460Z,63.67
2018-10-21T03:03:45.372Z,62.49
2018-10-21T03:06:14.801Z,62.38
2018-10-21T03:08:44.309Z,61.18
2018-10-21T03:11:13.859Z,60.20
2018-10-21T03:13:43.488Z,61.21
2018-10-21T03:16:13.250Z,60.65
2018-10-21T03:18:42.992Z,58.51
2018-10-21T03:21:12.414Z,59.51
2018-10-21T03:23:42.687Z,59.27
2018-10-21T03:26:12.780Z,60.63
2018-10-21T03:28:41.313Z,62.02
2018-10-21T03:31:13.454Z,61.90
2018-10-21T03:33:46.245Z,62.85
2018-10-21T03:36:14.793Z,63.25
2018-10-21T03:38:44.560Z,63.31
2018-10-21T03:41:14.148Z,63.04
2018-10-21T03:43:44.224Z,63.24
2018-10-21T03:46:15.377Z,63.07
2018-10-21T03:48:44.991Z,63.21
2018-10-21T03:51:15.857Z,64.85
2018-10-21T03:53:45.568Z,65.24
2018-10-21T03:56:14.623Z,65.78
2018-10-21T03:58:44.617Z,64.41
2018-10-21T04:01:14.115Z,64.09
2018-10-21T04:03:46.893Z,64.10
2018-10-21T04:06:16.275Z,63.78
2018-10-21T04:08:46.911Z,64.75
2018-10-21T04:11:17.004Z,65.01
2018-10-21T04:13:46.387Z,64.64
2018-10-21T04:16:15.792Z,64.48
2018-10-21T04:18:45.066Z,64.59
2018-10-21T04:21:13.604Z,64.28
2018-10-21T04:23:43.111Z,63.88
2018-10-21T04:26:13.373Z,63.35
2018-10-21T04:28:43.382Z,62.69
2018-10-21T04:31:14.470Z,63.08
2018-10-21T04:33:46.688Z,63.31
2018-10-21T04:36:19.997Z,64.74
2018-10-21T04:40:03.267Z,64.36
2018-10-21T04:42:32.361Z,66.61
2018-10-21T04:45:04.833Z,66.91
2018-10-21T04:47:34.400Z,66.01
2018-10-21T04:50:03.407Z,66.30
2018-10-21T04:52:34.310Z,66.98
2018-10-21T04:55:07.411Z,67.45
2018-10-21T04:57:39.047Z,65.95
2018-10-21T05:00:12.660Z,64.92
2018-10-21T05:02:42.695Z,65.28
2018-10-21T05:05:13.028Z,64.21
2018-10-21T05:07:42.958Z,65.07
2018-10-21T05:10:28.518Z,65.01
2018-10-21T05:13:00.017Z,64.49
2018-10-21T05:15:31.664Z,64.78
2018-10-21T05:18:01.222Z,64.72
2018-10-21T05:20:30.323Z,63.88
2018-10-21T05:22:59.885Z,64.38
2018-10-21T05:25:28.748Z,64.88
2018-10-21T05:27:58.830Z,64.91
2018-10-21T05:30:29.369Z,63.91
2018-10-21T05:32:58.027Z,64.10
2018-10-21T05:35:28.075Z,65.53
2018-10-21T05:38:11.769Z,65.24
2018-10-21T05:40:41.190Z,65.86
2018-10-21T05:43:10.307Z,64.96
2018-10-21T05:45:40.666Z,63.94
2018-10-21T05:48:11.375Z,63.61
2018-10-21T05:50:40.515Z,63.90
2018-10-21T05:53:10.995Z,64.80
2018-10-21T06:02:26.649Z,68.21
2018-10-21T06:04:56.252Z,67.66
2018-10-21T06:07:24.807Z,66.05
2018-10-21T06:09:54.569Z,65.24
2018-10-21T06:12:26.393Z,66.03
2018-10-21T06:14:55.448Z,66.13
2018-10-21T06:17:30.555Z,66.60
2018-10-21T06:20:07.599Z,67.63
2018-10-21T06:22:40.057Z,66.99
2018-10-21T06:25:10.032Z,67.77
2018-10-21T06:27:41.065Z,67.03
2018-10-21T06:30:11.784Z,66.36
2018-10-21T06:32:41.873Z,67.61
2018-10-21T06:35:12.408Z,66.67
2018-10-21T06:37:41.501Z,67.14
2018-10-21T06:40:11.696Z,65.24
2018-10-21T06:42:40.673Z,64.77
2018-10-21T06:45:10.939Z,63.64
2018-10-21T06:47:40.769Z,62.71
2018-10-21T06:50:15.561Z,64.70
2018-10-21T06:52:45.888Z,64.38
2018-10-21T06:55:15.404Z,63.80
2018-10-21T06:57:51.667Z,64.14
2018-10-21T07:00:23.498Z,63.94
2018-10-21T07:02:54.968Z,64.70
2018-10-21T07:05:34.982Z,65.37
2018-10-21T07:08:05.710Z,64.64
2018-10-21T07:10:40.789Z,64.60
2018-10-21T07:13:11.108Z,64.80
2018-10-21T07:15:42.460Z,64.99
2018-10-21T07:18:11.823Z,62.92
2018-10-21T07:20:40.989Z,63.52
2018-10-21T07:23:10.157Z,64.63
2018-10-21T07:25:41.136Z,63.47
2018-10-21T07:28:11.075Z,64.59
2018-10-21T07:30:45.080Z,65.02
2018-10-21T07:33:13.609Z,63.98
2018-10-21T07:35:43.572Z,63.84
2018-10-21T07:38:13.044Z,64.60
2018-10-21T07:40:42.409Z,64.06
2018-10-21T07:43:11.121Z,64.77
2018-10-21T07:45:39.931Z,63.38
2018-10-21T07:48:08.709Z,62.93
2018-10-21T07:50:38.763Z,61.90
2018-10-21T07:53:08.863Z,61.97
2018-10-21T07:55:39.512Z,62.06
2018-10-21T07:58:08.020Z,61.37
2018-10-21T08:00:37.536Z,60.64
2018-10-21T08:03:07.582Z,60.09
2018-10-21T08:05:49.076Z,60.43
2018-10-21T08:08:21.192Z,65.65
2018-10-21T08:10:51.260Z,64.33
2018-10-21T08:13:22.917Z,63.44
2018-10-21T08:15:52.526Z,63.01
2018-10-21T08:18:21.100Z,62.85
2018-10-21T08:20:52.488Z,62.00
2018-10-21T08:23:22.115Z,62.76
2018-10-21T08:25:51.320Z,61.96
2018-10-21T08:28:20.727Z,62.66
2018-10-21T08:30:49.861Z,62.25
2018-10-21T08:33:18.827Z,60.95
2018-10-21T08:35:47.424Z,61.04
2018-10-21T08:38:16.226Z,61.83
2018-10-21T08:40:45.024Z,62.32
2018-10-21T08:43:14.667Z,63.22
2018-10-21T08:45:44.354Z,62.22
2018-10-21T08:48:14.702Z,63.38
2018-10-21T08:50:43.556Z,62.83
2018-10-21T08:53:13.652Z,61.86
2018-10-21T08:55:42.413Z,62.81
2018-10-21T08:58:13.481Z,62.63
2018-10-21T09:00:42.632Z,62.33
2018-10-21T09:03:12.831Z,61.71
2018-10-21T09:05:41.759Z,62.39
2018-10-21T09:08:11.291Z,60.95
2018-10-21T09:10:42.076Z,60.88
2018-10-21T09:13:12.405Z,61.03
2018-10-21T09:15:41.307Z,60.84
2018-10-21T09:18:11.196Z,61.04
2018-10-21T09:20:40.740Z,60.51
2018-10-21T09:23:11.145Z,61.19
2018-10-21T09:25:39.679Z,59.60
2018-10-21T09:28:08.852Z,60.53
2018-10-21T09:30:38.784Z,59.81
2018-10-21T09:33:07.614Z,59.76
2018-10-21T09:35:36.873Z,60.15
2018-10-21T09:38:06.060Z,60.29
2018-10-21T09:40:35.447Z,60.18
2018-10-21T09:43:05.100Z,60.48
2018-10-21T09:45:33.864Z,60.12
2018-10-21T09:48:03.648Z,59.47
2018-10-21T09:50:33.061Z,59.02
2018-10-21T09:53:02.737Z,58.45
2018-10-21T09:55:31.666Z,57.94
2018-10-21T09:58:00.543Z,59.21
2018-10-21T10:00:35.586Z,59.83
2018-10-21T10:03:07.243Z,60.14
2018-10-21T10:05:36.641Z,59.77
2018-10-21T10:08:05.659Z,59.67
2018-10-21T10:10:34.215Z,60.18
2018-10-21T10:13:03.810Z,60.02
2018-10-21T10:15:32.612Z,59.58
2018-10-21T10:18:01.366Z,59.11
2018-10-21T10:20:31.746Z,59.26
2018-10-21T10:23:02.604Z,58.33
2018-10-21T10:25:32.688Z,57.87
2018-10-21T10:28:02.342Z,57.92
2018-10-21T10:30:32.262Z,57.53
2018-10-21T10:33:00.779Z,57.46
2018-10-21T10:35:30.739Z,57.22
2018-10-21T10:38:00.875Z,56.09
2018-10-21T10:40:31.100Z,55.58
2018-10-21T10:42:59.666Z,54.96
2018-10-21T10:45:30.003Z,54.07
2018-10-21T10:47:59.294Z,54.31
2018-10-21T10:50:27.857Z,52.94
2018-10-21T10:52:57.359Z,54.02
2018-10-21T10:55:31.045Z,54.17
2018-10-21T10:58:02.011Z,53.30
2018-10-21T11:00:31.675Z,52.78
2018-10-21T11:03:01.508Z,52.05
2018-10-21T11:05:31.529Z,52.21
2018-10-21T11:08:00.853Z,52.16
2018-10-21T11:10:30.545Z,50.56
2018-10-21T11:13:00.700Z,50.69
2018-10-21T11:15:30.345Z,51.65
2018-10-21T11:17:59.473Z,51.02
2018-10-21T11:20:30.492Z,49.89
2018-10-21T11:22:59.030Z,49.21
2018-10-21T11:25:29.811Z,48.60
2018-10-21T11:27:59.697Z,47.36
2018-10-21T11:30:30.357Z,48.20
2018-10-21T11:33:00.248Z,48.04
2018-10-21T11:35:30.963Z,48.61
2018-10-21T11:37:59.866Z,48.48
2018-10-21T11:40:29.742Z,48.52
2018-10-21T11:43:00.094Z,47.68
2018-10-21T11:45:29.608Z,48.11
2018-10-21T11:48:00.384Z,47.41
2018-10-21T11:50:30.653Z,47.50
2018-10-21T11:53:03.057Z,47.33
2018-10-21T11:55:38.590Z,46.48
2018-10-21T11:58:10.454Z,47.17
2018-10-21T12:00:39.517Z,47.06
2018-10-21T12:03:08.984Z,46.10
2018-10-21T12:05:38.724Z,45.95
2018-10-21T12:08:07.760Z,45.93
2018-10-21T12:10:37.398Z,46.35
2018-10-21T12:13:07.252Z,45.85
2018-10-21T12:15:37.327Z,45.82
2018-10-21T12:18:06.891Z,45.76
2018-10-21T12:20:37.107Z,45.33
2018-10-21T12:23:07.695Z,44.38
2018-10-21T12:25:36.808Z,43.19
2018-10-21T12:28:05.826Z,43.95
2018-10-21T12:30:36.210Z,43.70
2018-10-21T12:33:06.049Z,43.08
2018-10-21T12:35:36.450Z,43.51
2018-10-21T12:38:06.087Z,43.27
2018-10-21T12:40:35.456Z,43.12
2018-10-21T12:43:04.611Z,42.90
2018-10-21T12:45:35.330Z,42.69
2018-10-21T12:48:04.627Z,42.50
2018-10-21T12:50:33.178Z,43.05
2018-10-21T12:53:02.453Z,42.36
2018-10-21T12:55:32.892Z,42.36
2018-10-21T12:58:02.625Z,43.30
2018-10-21T13:00:31.992Z,41.71
2018-10-21T13:03:00.599Z,42.14
2018-10-21T13:05:30.125Z,41.18
2018-10-21T13:07:59.822Z,41.72
2018-10-21T13:10:29.663Z,40.20
2018-10-21T13:12:59.065Z,38.50
2018-10-21T13:15:29.159Z,38.49
2018-10-21T13:17:59.478Z,39.25
2018-10-21T13:20:29.067Z,38.93
2018-10-21T13:22:57.577Z,38.59
2018-10-21T13:25:26.651Z,38.74
2018-10-21T13:28:10.696Z,39.47
2018-10-21T13:30:40.051Z,40.21
2018-10-21T13:33:09.268Z,39.69
2018-10-21T13:35:39.911Z,39.50
2018-10-21T13:38:11.317Z,38.71
2018-10-21T13:40:40.385Z,38.83
2018-10-21T13:43:11.668Z,39.35
2018-10-21T13:45:42.156Z,39.52
2018-10-21T13:48:11.641Z,38.53
2018-10-21T13:50:40.786Z,38.64
2018-10-21T13:53:10.385Z,38.91
2018-10-21T13:55:39.975Z,37.74
2018-10-21T13:58:09.452Z,37.25
2018-10-21T14:00:39.198Z,36.97
2018-10-21T14:03:07.956Z,37.04
2018-10-21T14:05:37.099Z,36.96
2018-10-21T14:08:07.114Z,36.64
2018-10-21T14:10:36.451Z,37.17
2018-10-21T14:13:06.407Z,35.97
2018-10-21T14:15:36.827Z,36.60
2018-10-21T14:18:07.953Z,36.30
2018-10-21T14:20:36.948Z,35.64
2018-10-21T14:23:05.981Z,36.53
2018-10-21T14:25:34.599Z,36.80
2018-10-21T14:28:04.866Z,36.63
2018-10-21T14:30:35.728Z,37.03
2018-10-21T14:33:05.748Z,37.20
2018-10-21T14:35:34.964Z,35.74
2018-10-21T14:38:19.008Z,36.47
2018-10-21T14:40:47.855Z,36.70
2018-10-21T14:43:18.592Z,36.63
2018-10-21T14:45:47.292Z,35.66
2018-10-21T14:48:16.677Z,36.34
2018-10-21T14:50:45.135Z,36.32
2018-10-21T14:53:14.840Z,36.57
2018-10-21T14:55:47.644Z,36.14
2018-10-21T14:58:18.463Z,35.89
2018-10-21T15:00:47.995Z,35.37
2018-10-21T15:03:18.005Z,35.00
2018-10-21T15:05:46.521Z,35.39
2018-10-21T15:08:16.157Z,35.20
2018-10-21T15:10:47.240Z,35.30
2018-10-21T15:13:15.749Z,34.90
2018-10-21T15:15:45.299Z,34.81
2018-10-21T15:18:14.139Z,34.67
2018-10-21T15:20:42.860Z,35.82
2018-10-21T15:23:13.564Z,35.34
2018-10-21T15:25:43.093Z,35.42
2018-10-21T15:28:13.302Z,35.21
2018-10-21T15:30:42.405Z,34.82
2018-10-21T15:33:13.207Z,35.39
2018-10-21T15:35:42.841Z,35.12
2018-10-21T15:38:11.888Z,35.89
2018-10-21T15:40:41.340Z,35.47
2018-10-21T15:43:10.412Z,35.43
2018-10-21T15:45:39.955Z,36.34
2018-10-21T15:48:10.059Z,36.52
2018-10-21T15:50:40.293Z,36.35
2018-10-21T15:53:11.258Z,36.74
2018-10-21T15:55:44.999Z,36.47
2018-10-21T15:58:15.009Z,36.60
2018-10-21T16:00:44.876Z,37.32
2018-10-21T16:03:14.456Z,37.12
2018-10-21T16:05:44.035Z,36.93
2018-10-21T16:08:14.076Z,38.00
2018-10-21T16:10:44.090Z,37.82
2018-10-21T16:13:13.674Z,38.46
2018-10-21T16:15:44.303Z,39.02
2018-10-21T16:18:15.846Z,38.51
2018-10-21T16:20:45.235Z,39.19
2018-10-21T16:23:15.978Z,39.30
2018-10-21T16:25:45.548Z,39.94
2018-10-21T16:28:15.045Z,39.84
2018-10-21T16:30:44.188Z,40.39
2018-10-21T16:33:13.885Z,39.98
2018-10-21T16:35:43.445Z,39.50
2018-10-21T16:38:12.023Z,40.24
2018-10-21T16:40:41.437Z,39.54
2018-10-21T16:43:10.472Z,40.20
2018-10-21T16:45:39.504Z,40.51
2018-10-21T16:48:08.105Z,40.72
2018-10-21T16:50:37.896Z,41.49
2018-10-21T16:53:07.903Z,41.65
2018-10-21T16:55:37.012Z,42.73
2018-10-21T16:58:06.251Z,43.66
2018-10-21T17:00:35.655Z,42.75
2018-10-21T17:03:05.451Z,43.53
2018-10-21T17:05:35.000Z,43.21
2018-10-21T17:08:04.607Z,43.64
2018-10-21T17:10:36.415Z,45.00
2018-10-21T17:13:05.272Z,43.83
2018-10-21T17:15:34.972Z,44.23
2018-10-21T17:18:04.719Z,43.65
2018-10-21T17:20:34.116Z,43.98
2018-10-21T17:23:03.252Z,44.75
2018-10-21T17:25:33.075Z,44.55
2018-10-21T17:28:03.077Z,43.89
2018-10-21T17:30:32.462Z,44.19
2018-10-21T17:33:02.604Z,44.77
2018-10-21T17:35:31.371Z,46.58
2018-10-21T17:38:02.192Z,44.89
2018-10-21T17:40:33.489Z,46.02
2018-10-21T17:43:02.571Z,44.91
2018-10-21T17:45:33.298Z,45.76
2018-10-21T17:48:03.171Z,45.70
2018-10-21T17:50:33.823Z,45.71
2018-10-21T17:53:03.446Z,46.89
2018-10-21T17:55:32.856Z,45.33
2018-10-21T17:58:02.986Z,44.40
2018-10-21T18:00:32.526Z,46.79
2018-10-21T18:03:01.758Z,46.77
2018-10-21T18:05:31.896Z,45.91
2018-10-21T18:08:00.554Z,46.54
2018-10-21T18:10:30.298Z,46.53
2018-10-21T18:13:00.267Z,46.16
2018-10-21T18:15:30.688Z,47.64
2018-10-21T18:17:59.200Z,46.18
2018-10-21T18:20:30.385Z,45.91
2018-10-21T18:23:02.106Z,45.51
2018-10-21T18:25:31.687Z,46.50
2018-10-21T18:28:01.284Z,46.34
2018-10-21T18:30:30.671Z,46.74
2018-10-21T18:32:59.779Z,47.35
2018-10-21T18:35:28.878Z,47.43
2018-10-21T18:37:57.896Z,46.52
2018-10-21T18:40:26.483Z,47.58
2018-10-21T18:42:57.439Z,47.66
2018-10-21T18:45:27.035Z,47.27
2018-10-21T18:47:56.886Z,47.01
2018-10-21T18:50:26.561Z,48.07
2018-10-21T18:52:55.583Z,47.15
2018-10-21T18:55:24.136Z,47.53
2018-10-21T18:57:54.402Z,48.06
2018-10-21T19:00:23.416Z,46.71
2018-10-21T19:04:21.930Z,46.99
2018-10-21T19:06:53.317Z,48.46
2018-10-21T19:09:22.752Z,49.61
2018-10-21T19:14:38.361Z,50.43
2018-10-21T19:17:07.408Z,49.08
2018-10-21T19:19:36.677Z,48.84
2018-10-21T19:22:09.371Z,49.38
2018-10-21T19:24:39.061Z,49.87
2018-10-21T19:27:09.102Z,48.94
2018-10-21T19:29:38.136Z,49.46
2018-10-21T19:32:07.016Z,48.79
2018-10-21T19:34:37.182Z,49.44
2018-10-21T19:37:08.164Z,50.14
2018-10-21T19:39:37.880Z,49.18
2018-10-21T19:42:07.560Z,48.73
2018-10-21T19:44:37.987Z,49.30
2018-10-21T19:47:08.596Z,49.21
2018-10-21T19:49:39.515Z,49.41
2018-10-21T19:52:08.844Z,49.16
2018-10-21T19:54:37.737Z,49.95
2018-10-21T19:57:07.561Z,49.90
2018-10-21T19:59:37.724Z,50.54
2018-10-21T20:02:07.290Z,50.42
2018-10-21T20:04:36.770Z,48.99
2018-10-21T20:07:06.944Z,48.58
2018-10-21T20:09:37.501Z,49.31
2018-10-21T20:12:07.327Z,48.83
2018-10-21T20:14:37.210Z,49.37
2018-10-21T20:17:07.794Z,48.90
2018-10-21T20:19:37.718Z,48.62
2018-10-21T20:22:11.316Z,49.69
2018-10-21T20:24:41.644Z,49.91
2018-10-21T20:27:11.116Z,48.82
2018-10-21T20:29:41.388Z,49.93
2018-10-21T20:34:46.198Z,50.83
2018-10-21T20:37:15.675Z,50.45
2018-10-21T20:39:45.236Z,50.96
2018-10-21T20:42:17.322Z,51.09
2018-10-21T20:44:45.783Z,50.37
2018-10-21T20:47:18.992Z,50.90
2018-10-21T20:49:48.525Z,51.44
2018-10-21T20:52:19.572Z,49.79
2018-10-21T20:54:50.025Z,49.90
2018-10-21T20:57:20.724Z,51.29
2018-10-21T20:59:52.142Z,52.37
2018-10-21T21:02:22.191Z,51.43
2018-10-21T21:04:52.265Z,51.87
2018-10-21T21:07:23.373Z,51.25
2018-10-21T21:09:53.535Z,51.77
2018-10-21T21:12:22.676Z,51.18
2018-10-21T21:14:53.527Z,51.78
2018-10-21T21:17:23.855Z,52.28
2018-10-21T21:19:53.935Z,52.41
2018-10-21T21:22:24.342Z,52.64
2018-10-21T21:24:54.034Z,53.44
2018-10-21T21:27:23.637Z,53.37
2018-10-21T21:29:54.564Z,51.63
2018-10-21T21:32:24.033Z,50.50
2018-10-21T21:34:55.255Z,50.41
2018-10-21T21:37:25.691Z,51.08
2018-10-21T21:39:56.804Z,51.27
2018-10-21T21:42:26.301Z,52.93
2018-10-21T21:44:55.455Z,52.64
2018-10-21T21:47:24.476Z,52.74
2018-10-21T21:49:53.608Z,53.24
2018-10-21T21:52:23.592Z,51.93
2018-10-21T21:54:52.743Z,52.69
2018-10-21T21:57:21.776Z,51.93
2018-10-21T21:59:51.249Z,51.29
2018-10-21T22:02:21.208Z,53.80
2018-10-21T22:04:50.279Z,51.91
2018-10-21T22:07:19.468Z,52.07
2018-10-21T22:09:49.857Z,52.70
2018-10-21T22:12:21.055Z,51.66
2018-10-21T22:14:51.505Z,52.14
2018-10-21T22:17:20.053Z,51.40
2018-10-21T22:19:50.100Z,51.93
2018-10-21T22:22:19.912Z,51.52
2018-10-21T22:24:49.428Z,51.89
2018-10-21T22:27:19.334Z,52.14
2018-10-21T22:29:47.872Z,52.70
2018-10-21T22:32:16.663Z,54.80
2018-10-21T22:34:45.485Z,53.82
2018-10-21T22:37:15.095Z,54.25
2018-10-21T22:39:44.052Z,52.04
2018-10-21T22:42:12.954Z,51.42
2018-10-21T22:44:44.084Z,51.06
2018-10-21T22:47:13.316Z,51.39
2018-10-21T22:49:42.438Z,52.81
2018-10-21T22:52:11.554Z,53.25
2018-10-21T22:54:40.231Z,53.73
2018-10-21T22:57:14.064Z,53.83
2018-10-21T22:59:43.405Z,54.01
2018-10-21T23:02:13.817Z,53.69
2018-10-21T23:04:45.231Z,52.75
2018-10-21T23:07:14.902Z,53.44
2018-10-21T23:09:44.427Z,53.31
2018-10-21T23:12:14.215Z,53.94
2018-10-21T23:14:44.219Z,54.17
2018-10-21T23:17:14.612Z,55.84
2018-10-21T23:19:48.799Z,56.04
2018-10-21T23:22:18.430Z,55.45
2018-10-21T23:24:48.499Z,55.59
2018-10-21T23:27:17.729Z,55.82
2018-10-21T23:29:47.870Z,55.63
2018-10-21T23:32:16.951Z,55.84
2018-10-21T23:34:46.217Z,56.90
2018-10-21T23:37:15.115Z,56.81
2018-10-21T23:39:44.178Z,57.97
2018-10-21T23:42:14.715Z,56.68
2018-10-21T23:44:43.195Z,55.82
2018-10-21T23:47:12.747Z,56.09
2018-10-21T23:49:41.995Z,56.99
2018-10-21T23:52:12.624Z,57.87
2018-10-21T23:54:42.446Z,57.64
2018-10-21T23:57:11.763Z,57.28
2018-10-21T23:59:40.660Z,56.88
